sensor_id;sensor_type;location;lat;lon;timestamp;P1;durP1;ratioP1;P2;durP2;ratioP2
32106;SDS011;18622;51.998;10.440;2023-03-23T03:47:55;4.37;;;1.60;;
32106;SDS011;18622;51.998;10.440;2023-03-23T03:50:22;6.03;;;1.60;;
32106;SDS011;18622;51.998;10.440;2023-03-23T03:52:50;3.23;;;1.53;;
32106;SDS011;18622;51.998;10.440;2023-03-23T03:55:18;4.53;;;1.77;;
32106;SDS011;18622;51.998;10.440;2023-03-23T03:57:47;4.70;;;1.53;;
32106;SDS011;18622;51.998;10.440;2023-03-23T04:00:15;1.70;;;1.47;;
32106;SDS011;18622;51.998;10.440;2023-03-23T04:02:45;6.92;;;1.90;;
32106;SDS011;18622;51.998;10.440;2023-03-23T04:05:16;5.10;;;1.50;;
32106;SDS011;18622;51.998;10.440;2023-03-23T04:07:46;3.95;;;1.70;;
32106;SDS011;18622;51.998;10.440;2023-03-23T04:12:45;4.80;;;1.72;;
32106;SDS011;18622;51.998;10.440;2023-03-23T04:15:12;5.30;;;1.60;;
32106;SDS011;18622;51.998;10.440;2023-03-23T04:17:40;3.33;;;1.33;;
32106;SDS011;18622;51.998;10.440;2023-03-23T04:20:08;3.17;;;1.40;;
32106;SDS011;18622;51.998;10.440;2023-03-23T04:22:39;1.82;;;1.35;;
32106;SDS011;18622;51.998;10.440;2023-03-23T04:25:09;2.37;;;1.12;;
32106;SDS011;18622;51.998;10.440;2023-03-23T04:27:39;8.20;;;1.60;;
32106;SDS011;18622;51.998;10.440;2023-03-23T04:30:10;4.03;;;1.77;;
32106;SDS011;18622;51.998;10.440;2023-03-23T04:32:39;4.47;;;1.75;;
32106;SDS011;18622;51.998;10.440;2023-03-23T04:35:09;6.37;;;1.67;;
32106;SDS011;18622;51.998;10.440;2023-03-23T04:37:38;4.25;;;1.72;;
32106;SDS011;18622;51.998;10.440;2023-03-23T04:40:07;2.50;;;1.80;;
32106;SDS011;18622;51.998;10.440;2023-03-23T04:42:37;4.40;;;1.52;;
32106;SDS011;18622;51.998;10.440;2023-03-23T04:45:06;4.17;;;1.85;;
32106;SDS011;18622;51.998;10.440;2023-03-23T04:47:35;3.95;;;2.00;;
32106;SDS011;18622;51.998;10.440;2023-03-23T04:50:11;3.50;;;1.70;;
32106;SDS011;18622;51.998;10.440;2023-03-23T04:52:39;3.17;;;1.82;;
32106;SDS011;18622;51.998;10.440;2023-03-23T04:55:08;3.52;;;1.85;;
32106;SDS011;18622;51.998;10.440;2023-03-23T04:57:36;9.13;;;1.90;;
32106;SDS011;18622;51.998;10.440;2023-03-23T05:00:04;4.80;;;2.17;;
32106;SDS011;18622;51.998;10.440;2023-03-23T05:02:37;3.08;;;1.85;;
32106;SDS011;18622;51.998;10.440;2023-03-23T05:05:08;3.37;;;1.55;;
32106;SDS011;18622;51.998;10.440;2023-03-23T05:07:38;3.77;;;1.62;;
32106;SDS011;18622;51.998;10.440;2023-03-23T05:10:06;4.83;;;1.98;;
32106;SDS011;18622;51.998;10.440;2023-03-23T05:12:36;3.05;;;1.37;;
32106;SDS011;18622;51.998;10.440;2023-03-23T05:15:07;2.10;;;1.30;;
32106;SDS011;18622;51.998;10.440;2023-03-23T05:17:35;2.55;;;1.62;;
32106;SDS011;18622;51.998;10.440;2023-03-23T05:20:04;3.30;;;1.40;;
32106;SDS011;18622;51.998;10.440;2023-03-23T05:22:34;3.08;;;1.32;;
32106;SDS011;18622;51.998;10.440;2023-03-23T05:25:02;3.03;;;1.00;;
32106;SDS011;18622;51.998;10.440;2023-03-23T05:27:30;2.25;;;1.00;;
32106;SDS011;18622;51.998;10.440;2023-03-23T05:29:58;1.57;;;0.87;;
32106;SDS011;18622;51.998;10.440;2023-03-23T05:32:27;1.70;;;1.20;;
32106;SDS011;18622;51.998;10.440;2023-03-23T05:34:57;2.52;;;0.82;;
32106;SDS011;18622;51.998;10.440;2023-03-23T05:37:26;1.92;;;1.05;;
32106;SDS011;18622;51.998;10.440;2023-03-23T05:39:56;3.42;;;1.00;;
32106;SDS011;18622;51.998;10.440;2023-03-23T05:42:26;1.02;;;0.90;;
32106;SDS011;18622;51.998;10.440;2023-03-23T05:44:54;1.67;;;1.00;;
32106;SDS011;18622;51.998;10.440;2023-03-23T05:47:22;1.80;;;1.00;;
32106;SDS011;18622;51.998;10.440;2023-03-23T05:49:51;1.67;;;0.93;;
32106;SDS011;18622;51.998;10.440;2023-03-23T05:52:19;2.47;;;1.00;;
32106;SDS011;18622;51.998;10.440;2023-03-23T05:54:47;22.97;;;3.73;;
32106;SDS011;18622;51.998;10.440;2023-03-23T05:57:15;3.00;;;1.10;;
32106;SDS011;18622;51.998;10.440;2023-03-23T05:59:44;1.70;;;1.00;;
32106;SDS011;18622;51.998;10.440;2023-03-23T06:02:12;2.03;;;0.90;;
32106;SDS011;18622;51.998;10.440;2023-03-23T06:04:40;1.73;;;0.70;;
32106;SDS011;18622;51.998;10.440;2023-03-23T06:07:08;2.37;;;0.80;;
32106;SDS011;18622;51.998;10.440;2023-03-23T06:09:38;2.50;;;1.35;;
32106;SDS011;18622;51.998;10.440;2023-03-23T06:12:06;1.75;;;0.85;;
32106;SDS011;18622;51.998;10.440;2023-03-23T06:14:35;1.00;;;0.80;;
32106;SDS011;18622;51.998;10.440;2023-03-23T06:17:04;2.37;;;1.07;;
32106;SDS011;18622;51.998;10.440;2023-03-23T06:19:32;1.03;;;0.93;;
32106;SDS011;18622;51.998;10.440;2023-03-23T06:22:00;1.10;;;0.80;;
32106;SDS011;18622;51.998;10.440;2023-03-23T06:24:28;1.40;;;1.00;;
32106;SDS011;18622;51.998;10.440;2023-03-23T06:26:56;2.43;;;0.80;;
32106;SDS011;18622;51.998;10.440;2023-03-23T06:29:24;0.80;;;0.80;;
32106;SDS011;18622;51.998;10.440;2023-03-23T15:53:04;6.35;;;2.10;;
32106;SDS011;18622;51.998;10.440;2023-03-23T15:58:09;6.27;;;2.33;;
32106;SDS011;18622;51.998;10.440;2023-03-23T16:00:39;12.50;;;2.50;;
32106;SDS011;18622;51.998;10.440;2023-03-23T16:03:10;8.83;;;2.50;;
32106;SDS011;18622;51.998;10.440;2023-03-23T16:05:41;6.87;;;2.53;;
32106;SDS011;18622;51.998;10.440;2023-03-23T16:08:10;9.77;;;2.33;;
32106;SDS011;18622;51.998;10.440;2023-03-23T16:10:37;7.05;;;4.58;;
32106;SDS011;18622;51.998;10.440;2023-03-23T16:13:05;11.33;;;6.27;;
32106;SDS011;18622;51.998;10.440;2023-03-23T16:15:33;6.57;;;2.97;;
32106;SDS011;18622;51.998;10.440;2023-03-23T16:18:01;5.63;;;2.40;;
32106;SDS011;18622;51.998;10.440;2023-03-23T16:20:29;5.63;;;2.30;;
32106;SDS011;18622;51.998;10.440;2023-03-23T16:22:57;8.30;;;2.70;;
32106;SDS011;18622;51.998;10.440;2023-03-23T16:25:26;5.07;;;2.70;;
32106;SDS011;18622;51.998;10.440;2023-03-23T16:27:53;10.50;;;2.50;;
32106;SDS011;18622;51.998;10.440;2023-03-23T16:30:22;6.73;;;2.00;;
32106;SDS011;18622;51.998;10.440;2023-03-23T16:32:52;5.60;;;2.47;;
32106;SDS011;18622;51.998;10.440;2023-03-23T16:35:20;4.47;;;2.20;;
32106;SDS011;18622;51.998;10.440;2023-03-23T16:37:54;11.93;;;4.67;;
32106;SDS011;18622;51.998;10.440;2023-03-23T16:40:19;8.00;;;3.27;;
32106;SDS011;18622;51.998;10.440;2023-03-23T16:42:47;9.08;;;3.05;;
32106;SDS011;18622;51.998;10.440;2023-03-23T16:45:16;6.97;;;3.20;;
32106;SDS011;18622;51.998;10.440;2023-03-23T16:47:44;8.40;;;2.92;;
32106;SDS011;18622;51.998;10.440;2023-03-23T16:50:13;9.40;;;3.27;;
32106;SDS011;18622;51.998;10.440;2023-03-23T16:55:10;6.45;;;2.27;;
32106;SDS011;18622;51.998;10.440;2023-03-23T16:57:38;5.95;;;3.20;;
32106;SDS011;18622;51.998;10.440;2023-03-23T17:00:07;9.78;;;2.90;;
32106;SDS011;18622;51.998;10.440;2023-03-23T17:02:44;6.33;;;2.12;;
32106;SDS011;18622;51.998;10.440;2023-03-23T17:05:09;8.07;;;3.10;;
32106;SDS011;18622;51.998;10.440;2023-03-23T17:07:37;6.47;;;3.33;;
32106;SDS011;18622;51.998;10.440;2023-03-23T17:10:07;5.40;;;3.03;;
32106;SDS011;18622;51.998;10.440;2023-03-23T17:12:36;6.85;;;2.70;;
32106;SDS011;18622;51.998;10.440;2023-03-23T17:15:05;6.80;;;3.17;;
32106;SDS011;18622;51.998;10.440;2023-03-23T17:17:34;7.83;;;4.83;;
32106;SDS011;18622;51.998;10.440;2023-03-23T17:20:02;11.83;;;5.27;;
32106;SDS011;18622;51.998;10.440;2023-03-23T17:22:31;15.38;;;7.25;;
32106;SDS011;18622;51.998;10.440;2023-03-23T17:24:59;8.97;;;4.87;;
32106;SDS011;18622;51.998;10.440;2023-03-23T17:27:27;4.60;;;2.30;;
32106;SDS011;18622;51.998;10.440;2023-03-23T17:29:55;5.90;;;2.40;;
32106;SDS011;18622;51.998;10.440;2023-03-23T17:32:23;7.33;;;4.70;;
32106;SDS011;18622;51.998;10.440;2023-03-23T17:34:51;4.60;;;2.45;;
32106;SDS011;18622;51.998;10.440;2023-03-23T17:37:19;5.77;;;1.90;;
32106;SDS011;18622;51.998;10.440;2023-03-23T17:39:49;7.60;;;3.77;;
32106;SDS011;18622;51.998;10.440;2023-03-23T17:42:20;6.47;;;4.20;;
32106;SDS011;18622;51.998;10.440;2023-03-23T17:44:49;6.73;;;2.60;;
32106;SDS011;18622;51.998;10.440;2023-03-23T17:47:17;8.07;;;2.50;;
32106;SDS011;18622;51.998;10.440;2023-03-23T17:49:45;6.47;;;2.17;;
32106;SDS011;18622;51.998;10.440;2023-03-23T17:52:13;8.73;;;1.90;;
32106;SDS011;18622;51.998;10.440;2023-03-23T17:54:41;2.07;;;1.60;;
32106;SDS011;18622;51.998;10.440;2023-03-23T17:57:09;5.63;;;1.90;;
32106;SDS011;18622;51.998;10.440;2023-03-23T17:59:37;5.95;;;1.65;;
32106;SDS011;18622;51.998;10.440;2023-03-23T18:02:04;5.63;;;1.40;;
32106;SDS011;18622;51.998;10.440;2023-03-23T18:04:33;8.88;;;2.00;;
32106;SDS011;18622;51.998;10.440;2023-03-23T18:07:01;4.77;;;1.87;;
32106;SDS011;18622;51.998;10.440;2023-03-23T18:09:28;4.97;;;1.67;;
32106;SDS011;18622;51.998;10.440;2023-03-23T18:11:56;2.63;;;2.27;;
32106;SDS011;18622;51.998;10.440;2023-03-23T18:14:24;4.73;;;2.30;;
32106;SDS011;18622;51.998;10.440;2023-03-23T18:16:52;7.33;;;3.03;;
32106;SDS011;18622;51.998;10.440;2023-03-23T18:19:20;7.20;;;2.73;;
32106;SDS011;18622;51.998;10.440;2023-03-23T18:21:48;4.23;;;2.10;;
32106;SDS011;18622;51.998;10.440;2023-03-23T18:24:16;4.47;;;2.73;;
32106;SDS011;18622;51.998;10.440;2023-03-23T18:26:45;9.85;;;4.97;;
32106;SDS011;18622;51.998;10.440;2023-03-23T18:29:13;9.00;;;4.33;;
32106;SDS011;18622;51.998;10.440;2023-03-23T18:31:41;9.27;;;5.83;;
32106;SDS011;18622;51.998;10.440;2023-03-23T18:34:09;20.43;;;11.43;;
32106;SDS011;18622;51.998;10.440;2023-03-23T18:36:37;17.87;;;13.33;;
32106;SDS011;18622;51.998;10.440;2023-03-23T18:39:04;19.73;;;11.13;;
32106;SDS011;18622;51.998;10.440;2023-03-23T18:41:34;25.08;;;18.05;;
32106;SDS011;18622;51.998;10.440;2023-03-23T18:44:02;26.93;;;21.07;;
32106;SDS011;18622;51.998;10.440;2023-03-23T18:46:29;14.17;;;10.50;;
32106;SDS011;18622;51.998;10.440;2023-03-23T18:48:57;20.97;;;9.20;;
32106;SDS011;18622;51.998;10.440;2023-03-23T18:51:25;9.57;;;6.73;;
32106;SDS011;18622;51.998;10.440;2023-03-23T18:53:53;11.17;;;5.90;;
32106;SDS011;18622;51.998;10.440;2023-03-23T18:56:21;13.17;;;7.00;;
32106;SDS011;18622;51.998;10.440;2023-03-23T18:58:50;16.40;;;7.97;;
32106;SDS011;18622;51.998;10.440;2023-03-23T19:01:19;11.35;;;6.03;;
32106;SDS011;18622;51.998;10.440;2023-03-23T19:03:47;18.13;;;6.03;;
32106;SDS011;18622;51.998;10.440;2023-03-23T19:06:16;10.10;;;4.60;;
32106;SDS011;18622;51.998;10.440;2023-03-23T19:08:47;10.67;;;3.83;;
32106;SDS011;18622;51.998;10.440;2023-03-23T19:13:43;4.97;;;3.22;;
32106;SDS011;18622;51.998;10.440;2023-03-23T19:16:11;6.65;;;3.08;;
32106;SDS011;18622;51.998;10.440;2023-03-23T19:18:39;11.93;;;4.60;;
32106;SDS011;18622;51.998;10.440;2023-03-23T19:21:07;14.37;;;6.17;;
32106;SDS011;18622;51.998;10.440;2023-03-23T19:23:35;9.23;;;5.57;;
32106;SDS011;18622;51.998;10.440;2023-03-23T19:26:03;16.77;;;8.37;;
32106;SDS011;18622;51.998;10.440;2023-03-23T19:28:31;11.47;;;5.37;;
32106;SDS011;18622;51.998;10.440;2023-03-23T19:30:59;8.77;;;3.90;;
32106;SDS011;18622;51.998;10.440;2023-03-23T19:33:26;11.47;;;4.50;;
32106;SDS011;18622;51.998;10.440;2023-03-23T19:35:54;15.73;;;4.93;;
32106;SDS011;18622;51.998;10.440;2023-03-23T19:38:22;12.10;;;6.27;;
32106;SDS011;18622;51.998;10.440;2023-03-23T19:40:54;12.57;;;5.53;;
32106;SDS011;18622;51.998;10.440;2023-03-23T19:43:22;11.35;;;4.55;;
32106;SDS011;18622;51.998;10.440;2023-03-23T19:45:51;6.42;;;4.40;;
32106;SDS011;18622;51.998;10.440;2023-03-23T19:48:19;7.30;;;4.00;;
32106;SDS011;18622;51.998;10.440;2023-03-23T19:50:48;10.33;;;2.90;;
32106;SDS011;18622;51.998;10.440;2023-03-23T19:53:18;8.83;;;3.83;;
32106;SDS011;18622;51.998;10.440;2023-03-23T19:55:46;4.50;;;2.90;;
32106;SDS011;18622;51.998;10.440;2023-03-23T19:58:14;6.83;;;3.03;;
32106;SDS011;18622;51.998;10.440;2023-03-23T20:00:42;9.63;;;3.57;;
32106;SDS011;18622;51.998;10.440;2023-03-23T20:03:10;5.20;;;3.27;;
32106;SDS011;18622;51.998;10.440;2023-03-23T20:05:38;11.83;;;5.28;;
32106;SDS011;18622;51.998;10.440;2023-03-23T20:08:06;7.03;;;3.63;;
32106;SDS011;18622;51.998;10.440;2023-03-23T20:10:35;13.20;;;4.37;;
32106;SDS011;18622;51.998;10.440;2023-03-23T20:13:03;3.98;;;2.33;;
32106;SDS011;18622;51.998;10.440;2023-03-23T20:15:31;8.40;;;4.20;;
32106;SDS011;18622;51.998;10.440;2023-03-23T20:17:59;2.47;;;1.70;;
32106;SDS011;18622;51.998;10.440;2023-03-23T20:20:27;3.07;;;1.53;;
32106;SDS011;18622;51.998;10.440;2023-03-23T20:22:56;2.20;;;1.17;;
32106;SDS011;18622;51.998;10.440;2023-03-23T20:25:24;5.33;;;2.60;;
32106;SDS011;18622;51.998;10.440;2023-03-23T20:27:51;2.73;;;1.57;;
32106;SDS011;18622;51.998;10.440;2023-03-23T20:30:19;2.60;;;1.10;;
32106;SDS011;18622;51.998;10.440;2023-03-23T20:32:47;3.07;;;1.67;;
32106;SDS011;18622;51.998;10.440;2023-03-23T20:35:16;1.12;;;0.78;;
32106;SDS011;18622;51.998;10.440;2023-03-23T20:37:46;2.87;;;1.07;;
32106;SDS011;18622;51.998;10.440;2023-03-23T20:40:15;2.35;;;1.40;;
32106;SDS011;18622;51.998;10.440;2023-03-23T20:42:43;1.57;;;1.07;;
32106;SDS011;18622;51.998;10.440;2023-03-23T20:45:11;0.80;;;0.77;;
32106;SDS011;18622;51.998;10.440;2023-03-23T20:47:40;3.55;;;1.00;;
32106;SDS011;18622;51.998;10.440;2023-03-23T20:50:09;2.07;;;1.00;;
32106;SDS011;18622;51.998;10.440;2023-03-23T20:52:37;3.22;;;1.15;;
32106;SDS011;18622;51.998;10.440;2023-03-23T20:55:05;3.13;;;0.80;;
32106;SDS011;18622;51.998;10.440;2023-03-23T20:57:34;0.80;;;0.80;;
32106;SDS011;18622;51.998;10.440;2023-03-23T21:00:04;1.85;;;0.80;;
32106;SDS011;18622;51.998;10.440;2023-03-23T21:02:34;1.65;;;0.80;;
32106;SDS011;18622;51.998;10.440;2023-03-23T21:05:01;2.97;;;0.97;;
32106;SDS011;18622;51.998;10.440;2023-03-23T21:07:29;3.08;;;1.10;;
32106;SDS011;18622;51.998;10.440;2023-03-23T21:09:57;2.03;;;0.93;;
32106;SDS011;18622;51.998;10.440;2023-03-23T21:12:26;3.47;;;1.07;;
32106;SDS011;18622;51.998;10.440;2023-03-23T21:14:53;5.30;;;0.90;;
32106;SDS011;18622;51.998;10.440;2023-03-23T21:17:21;4.57;;;1.10;;
32106;SDS011;18622;51.998;10.440;2023-03-23T21:19:49;3.30;;;1.03;;
32106;SDS011;18622;51.998;10.440;2023-03-23T21:22:17;3.07;;;1.13;;
32106;SDS011;18622;51.998;10.440;2023-03-23T21:24:46;3.12;;;1.10;;
32106;SDS011;18622;51.998;10.440;2023-03-23T21:27:15;3.63;;;1.40;;
32106;SDS011;18622;51.998;10.440;2023-03-23T21:29:43;2.60;;;1.13;;
32106;SDS011;18622;51.998;10.440;2023-03-23T21:32:11;3.93;;;1.30;;
32106;SDS011;18622;51.998;10.440;2023-03-23T21:34:39;5.63;;;1.47;;
32106;SDS011;18622;51.998;10.440;2023-03-23T21:37:08;7.67;;;1.20;;
32106;SDS011;18622;51.998;10.440;2023-03-23T21:39:36;4.20;;;1.35;;
32106;SDS011;18622;51.998;10.440;2023-03-23T21:42:04;3.77;;;1.13;;
32106;SDS011;18622;51.998;10.440;2023-03-23T21:44:32;3.47;;;1.30;;
